Time;durP1;ratioP1;P1;durP2;ratioP2;P2;SDS_P1;SDS_P2;PMS_P1;PMS_P2;Temp;Humidity;BMP_temperature;BMP_pressure;BME280_temperature;BME280_humidity;BME280_pressure;Samples;Min_cycle;Max_cycle;Signal;HPM_P1;HPM_P2
2023/07/09 00:02:50;;;;;;;5.78;4.50;;;;;;;20.71;86.01;101482.94;21076784;28;20051;-67
2023/07/09 00:12:52;;;;;;;5.00;4.50;;;;;;;20.69;85.94;101482.22;21078011;28;20050;-68
2023/07/09 00:22:54;;;;;;;5.00;4.25;;;;;;;20.69;86.64;101490.34;21076825;28;20477;-68
2023/07/09 00:32:55;;;;;;;7.25;4.50;;;;;;;20.70;86.27;101493.91;21076416;28;20052;-68
2023/07/09 00:43:00;;;;;;;5.30;4.80;;;;;;;20.67;86.31;101489.63;21057058;28;20044;-68
2023/07/09 00:53:11;;;;;;;6.32;5.05;;;;;;;20.67;87.41;101489.63;21074265;28;20048;-68
2023/07/09 01:03:20;;;;;;;6.65;4.75;;;;;;;20.65;86.65;101480.78;21072593;28;20130;-68
2023/07/09 01:13:21;;;;;;;4.50;4.10;;;;;;;20.65;86.14;101483.50;21071783;28;20052;-67
2023/07/09 01:23:24;;;;;;;5.88;4.90;;;;;;;20.64;86.62;101470.13;21070777;28;20520;-68
2023/07/09 01:33:26;;;;;;;5.50;4.80;;;;;;;20.63;86.30;101474.69;21064724;28;20052;-67
2023/07/09 01:43:29;;;;;;;4.90;4.40;;;;;;;20.59;86.25;101467.84;21068996;28;20059;-67
2023/07/09 01:53:31;;;;;;;5.25;4.63;;;;;;;20.60;85.50;101474.97;21069580;28;20055;-68
2023/07/09 02:03:32;;;;;;;5.35;4.70;;;;;;;20.60;85.37;101468.72;21069065;28;20044;-68
2023/07/09 02:13:34;;;;;;;4.95;4.32;;;;;;;20.58;84.80;101471.53;21068435;28;20059;-67
2023/07/09 02:23:36;;;;;;;4.90;4.40;;;;;;;20.57;85.66;101467.13;21066317;28;20044;-67
2023/07/09 02:33:37;;;;;;;6.93;4.60;;;;;;;20.55;84.17;101479.94;21053199;28;20074;-68
2023/07/09 02:43:39;;;;;;;4.55;4.10;;;;;;;20.54;84.65;101491.75;21065349;28;20443;-68
2023/07/09 02:53:41;;;;;;;4.82;4.00;;;;;;;20.52;84.26;101489.16;21064748;28;20135;-68
2023/07/09 03:03:43;;;;;;;5.75;4.43;;;;;;;20.51;84.18;101487.47;21064740;28;20044;-68
2023/07/09 03:13:46;;;;;;;4.60;4.20;;;;;;;20.50;84.68;101484.91;21064375;28;20512;-68
2023/07/09 03:23:47;;;;;;;4.95;4.35;;;;;;;20.41;84.50;101465.84;21072857;28;20044;-68
2023/07/09 03:33:51;;;;;;;5.20;4.68;;;;;;;20.46;84.17;101475.38;21076144;28;20039;-67
2023/07/09 03:43:53;;;;;;;5.47;4.95;;;;;;;20.47;84.39;101477.91;21058201;28;20036;-67
2023/07/09 03:53:56;;;;;;;6.05;5.28;;;;;;;20.39;83.88;101494.00;20994369;28;20060;-67
2023/07/09 04:03:58;;;;;;;6.72;5.60;;;;;;;20.32;84.43;101498.25;20994882;28;20056;-67
2023/07/09 04:14:00;;;;;;;7.32;5.15;;;;;;;20.28;84.83;101508.47;20994458;28;20051;-67
2023/07/09 04:24:01;;;;;;;5.95;5.35;;;;;;;20.28;85.07;101495.81;20994096;28;20049;-67
2023/07/09 04:34:04;;;;;;;5.63;5.03;;;;;;;20.27;86.30;101487.84;21031353;28;20044;-67
2023/07/09 04:44:06;;;;;;;7.88;5.93;;;;;;;20.35;87.80;101498.84;21075561;28;20095;-67
2023/07/09 04:54:07;;;;;;;7.10;5.72;;;;;;;20.29;89.11;101488.56;21037971;28;20094;-67
2023/07/09 05:04:09;;;;;;;7.78;5.70;;;;;;;20.37;88.49;101496.84;20945846;28;20053;-67
2023/07/09 05:14:11;;;;;;;6.85;5.30;;;;;;;20.37;86.08;101495.97;20962678;28;20056;-67
2023/07/09 05:24:13;;;;;;;9.00;5.53;;;;;;;20.39;87.11;101505.69;20957786;28;20110;-67
2023/07/09 05:34:14;;;;;;;5.97;5.00;;;;;;;20.40;85.02;101501.09;20951996;28;21758;-67
2023/07/09 05:44:16;;;;;;;6.80;5.22;;;;;;;20.38;85.64;101498.56;20958259;28;20521;-67
2023/07/09 05:54:18;;;;;;;6.97;5.03;;;;;;;20.39;85.72;101504.81;20955072;28;20044;-67
2023/07/09 06:04:20;;;;;;;6.55;5.28;;;;;;;20.39;85.46;101515.63;20948995;28;20518;-67
2023/07/09 06:14:22;;;;;;;8.25;5.25;;;;;;;20.38;85.61;101525.59;20967116;28;20044;-67
2023/07/09 06:24:23;;;;;;;7.43;5.10;;;;;;;20.33;86.27;101527.88;20954111;28;20044;-67
2023/07/09 06:34:25;;;;;;;6.47;5.60;;;;;;;20.40;87.84;101525.44;20951995;28;20426;-67
2023/07/09 06:44:27;;;;;;;6.22;5.13;;;;;;;20.43;87.62;101539.56;20960051;28;20052;-66
2023/07/09 06:54:28;;;;;;;7.55;5.50;;;;;;;20.46;87.02;101534.88;20945504;28;20036;-67
2023/07/09 07:04:30;;;;;;;6.10;5.05;;;;;;;20.49;88.03;101542.72;20980941;28;20052;-67
2023/07/09 07:14:32;;;;;;;5.82;4.90;;;;;;;20.52;89.01;101547.84;20955854;28;20425;-67
2023/07/09 07:24:33;;;;;;;6.70;5.00;;;;;;;20.52;87.71;101532.44;20991622;28;20045;-67
2023/07/09 07:34:35;;;;;;;7.43;5.60;;;;;;;20.55;88.39;101536.75;21001228;28;20059;-67
2023/07/09 07:44:37;;;;;;;7.55;5.00;;;;;;;20.59;91.12;101546.28;20971270;28;20044;-67
2023/07/09 07:54:38;;;;;;;5.60;5.00;;;;;;;20.63;92.07;101545.00;20977643;28;20458;-67
2023/07/09 08:04:41;;;;;;;7.55;4.57;;;;;;;20.64;91.17;101552.13;20970169;28;20426;-67
2023/07/09 08:14:45;;;;;;;7.88;4.93;;;;;;;20.66;89.45;101549.31;20992977;28;20094;-67
2023/07/09 08:24:46;;;;;;;5.27;4.50;;;;;;;20.76;88.90;101546.59;21008703;28;20059;-67
2023/07/09 08:34:48;;;;;;;5.35;4.50;;;;;;;20.81;87.55;101537.09;21076952;28;20509;-67
2023/07/09 08:45:40;;;;;;;5.93;4.47;;;;;;;20.85;87.08;101529.56;21076034;28;20040;-67
2023/07/09 08:56:09;;;;;;;5.40;4.80;;;;;;;20.91;86.81;101533.53;21076493;28;20615;-67
2023/07/09 09:06:14;;;;;;;5.53;4.00;;;;;;;20.94;86.87;101534.13;21074178;28;20090;-67
2023/07/09 09:16:26;;;;;;;;;;;;;;;20.95;86.70;101516.91;21072727;28;20048;-67
2023/07/09 09:26:34;;;;;;;4.75;4.25;;;;;;;20.96;86.58;101532.13;21059587;28;19927;-67
2023/07/09 09:36:36;;;;;;;5.40;4.15;;;;;;;20.91;86.71;101515.47;21072336;28;20044;-67
2023/07/09 09:46:38;;;;;;;4.85;3.97;;;;;;;21.00;86.53;101528.16;21070876;28;20079;-67
2023/07/09 09:56:42;;;;;;;6.15;4.10;;;;;;;21.01;88.87;101532.56;21026490;28;20059;-68
2023/07/09 10:06:50;;;;;;;5.67;4.10;;;;;;;21.05;89.09;101529.56;20983186;28;20151;-67
2023/07/09 10:16:56;;;;;;;3.80;3.38;;;;;;;21.06;87.39;101539.41;20983486;28;20048;-67
2023/07/09 10:27:16;;;;;;;4.72;4.03;;;;;;;21.05;87.20;101537.69;21045616;28;20083;-67
2023/07/09 10:37:30;;;;;;;4.35;3.67;;;;;;;21.03;87.11;101529.72;21065738;28;20052;-67
2023/07/09 10:47:41;;;;;;;3.93;3.43;;;;;;;21.04;87.62;101525.16;21067193;28;20472;-67
2023/07/09 10:58:03;;;;;;;5.07;4.13;;;;;;;21.04;88.53;101515.19;21049443;28;20066;-67
2023/07/09 11:08:16;;;;;;;4.15;3.40;;;;;;;21.05;87.54;101502.50;21064565;28;20071;-67
2023/07/09 11:18:22;;;;;;;3.90;3.50;;;;;;;21.05;87.61;101494.38;21059244;28;20051;-67
2023/07/09 11:28:33;;;;;;;3.70;3.35;;;;;;;21.06;88.23;101479.84;21042919;28;23294;-67
2023/07/09 11:38:46;;;;;;;4.45;3.72;;;;;;;21.00;91.06;101462.34;20932824;28;20190;-67
2023/07/09 11:48:49;;;;;;;5.18;3.97;;;;;;;21.14;94.60;101474.56;20959492;28;20052;-67
2023/07/09 11:58:57;;;;;;;5.15;3.50;;;;;;;21.18;95.66;101461.59;20963732;28;20041;-67
2023/07/09 12:08:59;;;;;;;4.15;3.67;;;;;;;21.19;96.53;101466.88;20966910;28;20059;-67
2023/07/09 12:19:01;;;;;;;4.05;3.45;;;;;;;21.21;96.36;101455.91;20963922;28;20036;-67
2023/07/09 12:29:05;;;;;;;4.68;3.72;;;;;;;21.23;99.98;101453.91;20943902;28;20412;-67
2023/07/09 12:39:12;;;;;;;4.18;3.63;;;;;;;21.25;98.97;101455.47;20940556;28;20072;-67
2023/07/09 12:49:27;;;;;;;4.22;3.58;;;;;;;21.28;99.76;101438.94;20944079;28;20052;-68
2023/07/09 12:59:38;;;;;;;3.45;3.15;;;;;;;21.34;100.00;101420.38;20953931;28;20037;-67
2023/07/09 13:09:48;;;;;;;4.82;3.40;;;;;;;21.36;100.00;101442.75;20951734;28;20041;-69
2023/07/09 13:19:50;;;;;;;3.17;2.85;;;;;;;21.48;100.00;101457.84;20932685;28;20076;-69
2023/07/09 13:29:52;;;;;;;5.10;3.80;;;;;;;21.55;100.00;101447.28;20947079;28;20514;-70
2023/07/09 13:39:54;;;;;;;4.60;3.38;;;;;;;21.56;100.00;101433.56;20938825;28;20418;-70
2023/07/09 13:49:55;;;;;;;4.53;3.58;;;;;;;21.51;100.00;101394.41;20944692;28;20131;-70
2023/07/09 13:59:57;;;;;;;4.18;3.75;;;;;;;21.52;100.00;101377.97;20938600;28;20087;-70
2023/07/09 14:10:00;;;;;;;4.25;3.67;;;;;;;21.51;100.00;101364.59;20946820;28;20056;-70
2023/07/09 14:20:02;;;;;;;3.80;3.13;;;;;;;21.51;100.00;101359.19;20940230;28;20044;-70
2023/07/09 14:30:04;;;;;;;4.00;3.42;;;;;;;21.53;100.00;101330.91;20931724;28;20136;-70
2023/07/09 14:40:07;;;;;;;4.05;3.05;;;;;;;21.50;100.00;101336.63;20920099;28;20044;-70
2023/07/09 14:50:09;;;;;;;3.47;2.97;;;;;;;21.47;100.00;101347.78;20926037;28;20053;-70
2023/07/09 15:00:15;;;;;;;4.47;3.65;;;;;;;21.47;100.00;101331.53;20905386;28;20052;-70
2023/07/09 15:10:22;;;;;;;3.47;3.17;;;;;;;21.44;100.00;101321.00;20925242;28;20047;-70
2023/07/09 15:20:27;;;;;;;3.95;3.25;;;;;;;21.44;100.00;101369.75;20944835;28;20123;-69
2023/07/09 15:30:30;;;;;;;4.85;3.20;;;;;;;21.41;100.00;101383.59;20941557;28;20041;-70
2023/07/09 15:40:33;;;;;;;4.05;3.35;;;;;;;21.44;100.00;101361.63;20943388;28;20037;-71
2023/07/09 15:50:36;;;;;;;4.20;3.03;;;;;;;21.44;100.00;101408.53;20922229;28;20045;-75
2023/07/09 16:00:37;;;;;;;12.18;4.88;;;;;;;21.48;100.00;101427.19;20923827;28;20048;-72
2023/07/09 16:10:39;;;;;;;5.10;3.47;;;;;;;21.51;100.00;101462.97;20911419;28;20047;-72
2023/07/09 16:20:41;;;;;;;4.93;3.20;;;;;;;21.57;100.00;101429.03;20922542;28;20063;-70
2023/07/09 16:30:43;;;;;;;4.90;3.15;;;;;;;21.61;100.00;101418.72;20915470;28;20088;-70
2023/07/09 16:40:44;;;;;;;4.40;3.30;;;;;;;21.62;100.00;101442.09;20917993;28;20053;-72
2023/07/09 16:50:50;;;;;;;5.60;3.42;;;;;;;21.65;100.00;101750.72;20955965;28;20076;-72
2023/07/09 17:00:52;;;;;;;6.63;4.22;;;;;;;21.64;100.00;101630.66;20944039;28;20053;-69
2023/07/09 17:10:54;;;;;;;3.70;3.05;;;;;;;21.50;99.35;101572.31;20974280;28;20102;-70
2023/07/09 17:20:58;;;;;;;6.47;3.60;;;;;;;21.49;98.62;101651.88;20961724;28;20071;-70
2023/07/09 17:31:00;;;;;;;7.70;3.13;;;;;;;21.42;99.60;101721.16;20987625;28;20048;-71
2023/07/09 17:41:02;;;;;;;8.55;3.60;;;;;;;21.39;100.00;101678.09;20963620;28;20045;-72
2023/07/09 17:51:04;;;;;;;3.53;2.78;;;;;;;21.38;100.00;101646.59;20938269;28;20509;-72
2023/07/09 18:01:06;;;;;;;4.88;3.10;;;;;;;21.33;100.00;101632.63;20957081;28;20127;-70
2023/07/09 18:11:20;;;;;;;6.38;3.10;;;;;;;21.30;100.00;101607.53;20991162;28;20538;-70
2023/07/09 18:21:22;;;;;;;5.30;2.80;;;;;;;21.28;100.00;101596.00;20989671;28;20459;-70
2023/07/09 18:31:24;;;;;;;6.47;2.92;;;;;;;21.25;100.00;101571.91;20930947;28;20056;-70
2023/07/09 18:41:27;;;;;;;3.80;2.72;;;;;;;21.24;100.00;101629.78;20981870;28;20048;-70
2023/07/09 18:51:29;;;;;;;3.45;2.75;;;;;;;21.21;100.00;101581.31;20964057;28;20048;-69
2023/07/09 19:01:30;;;;;;;3.42;2.75;;;;;;;21.20;100.00;101571.47;20974966;28;20048;-70
2023/07/09 19:11:32;;;;;;;3.60;2.70;;;;;;;21.20;100.00;101573.34;20958230;28;20190;-70
2023/07/09 19:21:34;;;;;;;6.15;2.70;;;;;;;21.17;100.00;101550.09;20974083;28;20584;-70
2023/07/09 19:31:37;;;;;;;3.78;2.58;;;;;;;21.16;100.00;101570.03;20958039;28;20447;-70
2023/07/09 19:41:39;;;;;;;4.20;2.88;;;;;;;21.14;100.00;101558.50;20964980;28;20135;-70
2023/07/09 19:51:41;;;;;;;3.72;2.47;;;;;;;21.12;100.00;101544.25;20960809;28;20094;-70
2023/07/09 20:01:46;;;;;;;3.22;2.92;;;;;;;21.10;100.00;101552.53;20957976;28;20049;-70
2023/07/09 20:11:50;;;;;;;3.22;2.40;;;;;;;21.08;100.00;101538.28;20974788;28;20585;-69
2023/07/09 20:21:52;;;;;;;2.53;2.10;;;;;;;21.06;100.00;101561.06;20994425;28;20053;-70
2023/07/09 20:31:55;;;;;;;3.90;2.60;;;;;;;21.03;100.00;101559.50;20960879;28;20326;-69
2023/07/09 20:41:57;;;;;;;3.17;2.30;;;;;;;21.01;100.00;101585.88;20973869;28;20565;-69
2023/07/09 20:52:00;;;;;;;3.10;2.40;;;;;;;20.99;100.00;101591.41;20983153;28;20044;-70
2023/07/09 21:02:01;;;;;;;4.50;2.80;;;;;;;20.99;100.00;101595.94;20978981;28;20041;-70
2023/07/09 21:12:10;;;;;;;3.53;2.47;;;;;;;20.95;100.00;101603.50;20971391;28;20203;-70
2023/07/09 21:22:16;;;;;;;3.05;2.40;;;;;;;20.95;100.00;101600.81;20971204;28;20053;-70
2023/07/09 21:32:22;;;;;;;3.20;2.90;;;;;;;20.94;100.00;101631.56;20969551;28;20456;-70
2023/07/09 21:42:24;;;;;;;3.75;2.42;;;;;;;20.94;100.00;101630.69;20963818;28;20076;-70
2023/07/09 21:52:26;;;;;;;2.72;2.30;;;;;;;20.94;100.00;101644.22;20978777;28;20063;-70
2023/07/09 22:02:29;;;;;;;3.55;2.80;;;;;;;20.84;100.00;101590.09;20976776;28;20079;-70
2023/07/09 22:12:31;;;;;;;3.63;2.60;;;;;;;20.91;100.00;101629.16;20971149;28;20044;-70
2023/07/09 22:22:33;;;;;;;3.28;2.50;;;;;;;20.90;100.00;101611.19;20967723;28;20151;-70
2023/07/09 22:32:36;;;;;;;3.38;2.63;;;;;;;20.88;100.00;101601.50;20965050;28;20041;-70
2023/07/09 22:42:38;;;;;;;3.70;2.33;;;;;;;20.88;100.00;101599.66;20966736;28;20048;-69
2023/07/09 22:52:41;;;;;;;4.07;2.30;;;;;;;20.88;100.00;101605.06;20960842;28;20044;-70
2023/07/09 23:02:43;;;;;;;4.03;2.75;;;;;;;20.86;100.00;101624.13;20941687;28;20421;-69
2023/07/09 23:12:45;;;;;;;3.20;2.40;;;;;;;20.87;100.00;101625.00;21023860;28;20053;-70
2023/07/09 23:22:52;;;;;;;3.10;2.40;;;;;;;20.84;100.00;101603.63;20981802;28;20067;-69
2023/07/09 23:32:57;;;;;;;5.15;2.75;;;;;;;20.84;100.00;101630.69;20982278;28;20072;-69
2023/07/09 23:42:59;;;;;;;4.93;2.95;;;;;;;20.84;100.00;101649.66;20991530;28;20064;-70
2023/07/09 23:53:01;;;;;;;3.70;2.42;;;;;;;20.82;100.00;101632.69;20997130;28;20052;-70
